sensor_id;sensor_type;location;lat;lon;timestamp;temperature;humidity
16479;DHT22;8350;52.316;10.530;2022-08-21T00:00:43;17.50;99.90
16479;DHT22;8350;52.316;10.530;2022-08-21T00:03:10;17.40;99.90
16479;DHT22;8350;52.316;10.530;2022-08-21T00:05:41;17.30;99.90
16479;DHT22;8350;52.316;10.530;2022-08-21T00:08:11;17.30;99.90
16479;DHT22;8350;52.316;10.530;2022-08-21T00:10:40;17.30;99.90
16479;DHT22;8350;52.316;10.530;2022-08-21T00:13:08;17.20;99.90
16479;DHT22;8350;52.316;10.530;2022-08-21T00:15:36;17.10;99.90
16479;DHT22;8350;52.316;10.530;2022-08-21T00:18:04;17.00;99.90
16479;DHT22;8350;52.316;10.530;2022-08-21T00:20:32;17.00;99.90
16479;DHT22;8350;52.316;10.530;2022-08-21T00:22:59;16.90;99.90
16479;DHT22;8350;52.316;10.530;2022-08-21T00:25:27;16.80;99.90
16479;DHT22;8350;52.316;10.530;2022-08-21T00:27:56;16.60;99.90
16479;DHT22;8350;52.316;10.530;2022-08-21T00:30:24;16.60;99.90
16479;DHT22;8350;52.316;10.530;2022-08-21T00:32:52;16.40;99.90
16479;DHT22;8350;52.316;10.530;2022-08-21T00:35:22;16.30;99.90
16479;DHT22;8350;52.316;10.530;2022-08-21T00:37:49;16.20;99.90
16479;DHT22;8350;52.316;10.530;2022-08-21T00:40:19;15.90;99.90
16479;DHT22;8350;52.316;10.530;2022-08-21T00:42:48;15.70;99.90
16479;DHT22;8350;52.316;10.530;2022-08-21T00:45:16;15.60;99.90
16479;DHT22;8350;52.316;10.530;2022-08-21T00:47:43;15.30;99.90
16479;DHT22;8350;52.316;10.530;2022-08-21T00:50:11;15.30;99.90
16479;DHT22;8350;52.316;10.530;2022-08-21T00:52:39;15.30;99.90
16479;DHT22;8350;52.316;10.530;2022-08-21T00:55:09;15.40;99.90
16479;DHT22;8350;52.316;10.530;2022-08-21T00:57:40;15.30;99.90
16479;DHT22;8350;52.316;10.530;2022-08-21T01:00:11;15.10;99.90
16479;DHT22;8350;52.316;10.530;2022-08-21T01:02:40;15.10;99.90
16479;DHT22;8350;52.316;10.530;2022-08-21T01:05:08;15.10;99.90
16479;DHT22;8350;52.316;10.530;2022-08-21T01:07:35;15.00;99.90
16479;DHT22;8350;52.316;10.530;2022-08-21T01:10:03;14.90;99.90
16479;DHT22;8350;52.316;10.530;2022-08-21T01:12:31;14.80;99.90
16479;DHT22;8350;52.316;10.530;2022-08-21T01:15:03;14.70;99.90
16479;DHT22;8350;52.316;10.530;2022-08-21T01:17:32;14.60;99.90
16479;DHT22;8350;52.316;10.530;2022-08-21T01:20:03;14.70;99.90
16479;DHT22;8350;52.316;10.530;2022-08-21T01:22:32;14.80;99.90
16479;DHT22;8350;52.316;10.530;2022-08-21T01:24:59;14.90;99.90
16479;DHT22;8350;52.316;10.530;2022-08-21T01:27:26;15.00;99.90
16479;DHT22;8350;52.316;10.530;2022-08-21T01:29:56;14.90;99.90
16479;DHT22;8350;52.316;10.530;2022-08-21T01:32:23;14.80;99.90
16479;DHT22;8350;52.316;10.530;2022-08-21T01:34:51;14.70;99.90
16479;DHT22;8350;52.316;10.530;2022-08-21T01:37:19;14.50;99.90
16479;DHT22;8350;52.316;10.530;2022-08-21T01:39:48;14.50;99.90
16479;DHT22;8350;52.316;10.530;2022-08-21T01:42:15;14.40;99.90
16479;DHT22;8350;52.316;10.530;2022-08-21T01:44:44;14.40;99.90
16479;DHT22;8350;52.316;10.530;2022-08-21T01:47:13;14.40;99.90
16479;DHT22;8350;52.316;10.530;2022-08-21T01:49:40;14.40;99.90
16479;DHT22;8350;52.316;10.530;2022-08-21T01:52:09;14.40;99.90
16479;DHT22;8350;52.316;10.530;2022-08-21T01:54:36;14.40;99.90
16479;DHT22;8350;52.316;10.530;2022-08-21T01:57:05;14.30;99.90
16479;DHT22;8350;52.316;10.530;2022-08-21T01:59:32;14.30;99.90
16479;DHT22;8350;52.316;10.530;2022-08-21T02:01:59;14.40;99.90
16479;DHT22;8350;52.316;10.530;2022-08-21T02:04:26;14.40;99.90
16479;DHT22;8350;52.316;10.530;2022-08-21T02:06:53;14.40;99.90
16479;DHT22;8350;52.316;10.530;2022-08-21T02:09:20;14.50;99.90
16479;DHT22;8350;52.316;10.530;2022-08-21T02:11:47;14.60;99.90
16479;DHT22;8350;52.316;10.530;2022-08-21T02:14:15;14.50;99.90
16479;DHT22;8350;52.316;10.530;2022-08-21T02:16:43;14.40;99.90
16479;DHT22;8350;52.316;10.530;2022-08-21T02:19:12;14.20;99.90
16479;DHT22;8350;52.316;10.530;2022-08-21T02:21:39;14.10;99.90
16479;DHT22;8350;52.316;10.530;2022-08-21T02:24:07;14.10;99.90
16479;DHT22;8350;52.316;10.530;2022-08-21T02:26:34;14.10;99.90
16479;DHT22;8350;52.316;10.530;2022-08-21T02:29:02;14.10;99.90
16479;DHT22;8350;52.316;10.530;2022-08-21T02:31:30;14.20;99.90
16479;DHT22;8350;52.316;10.530;2022-08-21T02:33:57;14.10;99.90
16479;DHT22;8350;52.316;10.530;2022-08-21T02:36:24;14.10;99.90
16479;DHT22;8350;52.316;10.530;2022-08-21T02:38:51;14.10;99.90
16479;DHT22;8350;52.316;10.530;2022-08-21T02:41:20;14.20;99.90
16479;DHT22;8350;52.316;10.530;2022-08-21T02:43:47;14.10;99.90
16479;DHT22;8350;52.316;10.530;2022-08-21T02:46:16;14.10;99.90
16479;DHT22;8350;52.316;10.530;2022-08-21T02:48:45;14.10;99.90
16479;DHT22;8350;52.316;10.530;2022-08-21T02:51:15;14.10;99.90
16479;DHT22;8350;52.316;10.530;2022-08-21T02:53:44;14.00;99.90
16479;DHT22;8350;52.316;10.530;2022-08-21T02:56:13;14.00;99.90
16479;DHT22;8350;52.316;10.530;2022-08-21T02:58:45;14.10;99.90
16479;DHT22;8350;52.316;10.530;2022-08-21T03:01:13;14.10;99.90
16479;DHT22;8350;52.316;10.530;2022-08-21T03:03:42;13.90;99.90
16479;DHT22;8350;52.316;10.530;2022-08-21T03:06:12;13.80;99.90
16479;DHT22;8350;52.316;10.530;2022-08-21T03:08:39;13.80;99.90
16479;DHT22;8350;52.316;10.530;2022-08-21T03:11:06;13.80;99.90
16479;DHT22;8350;52.316;10.530;2022-08-21T03:13:33;13.70;99.90
16479;DHT22;8350;52.316;10.530;2022-08-21T03:15:59;13.50;99.90
16479;DHT22;8350;52.316;10.530;2022-08-21T03:18:26;13.50;99.90
16479;DHT22;8350;52.316;10.530;2022-08-21T03:20:53;13.60;99.90
16479;DHT22;8350;52.316;10.530;2022-08-21T03:23:21;13.50;99.90
16479;DHT22;8350;52.316;10.530;2022-08-21T03:25:48;13.50;99.90
16479;DHT22;8350;52.316;10.530;2022-08-21T03:28:18;13.40;99.90
16479;DHT22;8350;52.316;10.530;2022-08-21T03:30:48;13.40;99.90
16479;DHT22;8350;52.316;10.530;2022-08-21T03:33:16;13.40;99.90
16479;DHT22;8350;52.316;10.530;2022-08-21T03:35:44;13.20;99.90
16479;DHT22;8350;52.316;10.530;2022-08-21T03:38:12;12.90;99.90
16479;DHT22;8350;52.316;10.530;2022-08-21T03:40:41;12.80;99.90
16479;DHT22;8350;52.316;10.530;2022-08-21T03:43:08;12.70;99.90
16479;DHT22;8350;52.316;10.530;2022-08-21T03:45:35;12.70;99.90
16479;DHT22;8350;52.316;10.530;2022-08-21T03:48:03;12.70;99.90
16479;DHT22;8350;52.316;10.530;2022-08-21T03:50:34;12.80;99.90
16479;DHT22;8350;52.316;10.530;2022-08-21T03:53:02;12.80;99.90
16479;DHT22;8350;52.316;10.530;2022-08-21T03:55:29;12.80;99.90
16479;DHT22;8350;52.316;10.530;2022-08-21T03:57:58;12.70;99.90
16479;DHT22;8350;52.316;10.530;2022-08-21T04:00:25;12.70;99.90
16479;DHT22;8350;52.316;10.530;2022-08-21T04:02:52;12.60;99.90
16479;DHT22;8350;52.316;10.530;2022-08-21T04:05:19;12.50;99.90
16479;DHT22;8350;52.316;10.530;2022-08-21T04:07:54;12.40;99.90
16479;DHT22;8350;52.316;10.530;2022-08-21T04:10:22;12.20;99.90
16479;DHT22;8350;52.316;10.530;2022-08-21T04:12:51;12.10;99.90
16479;DHT22;8350;52.316;10.530;2022-08-21T04:15:20;12.00;99.90
16479;DHT22;8350;52.316;10.530;2022-08-21T04:17:47;12.10;99.90
16479;DHT22;8350;52.316;10.530;2022-08-21T04:20:13;12.00;99.90
16479;DHT22;8350;52.316;10.530;2022-08-21T04:22:40;12.00;99.90
16479;DHT22;8350;52.316;10.530;2022-08-21T04:25:08;12.10;99.90
16479;DHT22;8350;52.316;10.530;2022-08-21T04:27:35;12.20;99.90
16479;DHT22;8350;52.316;10.530;2022-08-21T04:30:02;12.30;99.90
16479;DHT22;8350;52.316;10.530;2022-08-21T04:32:31;12.30;99.90
16479;DHT22;8350;52.316;10.530;2022-08-21T04:34:59;12.30;99.90
16479;DHT22;8350;52.316;10.530;2022-08-21T04:37:26;12.40;99.90
16479;DHT22;8350;52.316;10.530;2022-08-21T04:39:53;12.40;99.90
16479;DHT22;8350;52.316;10.530;2022-08-21T04:42:21;12.50;99.90
16479;DHT22;8350;52.316;10.530;2022-08-21T04:44:52;12.60;99.90
16479;DHT22;8350;52.316;10.530;2022-08-21T04:47:19;12.50;99.90
16479;DHT22;8350;52.316;10.530;2022-08-21T04:49:47;12.40;99.90
16479;DHT22;8350;52.316;10.530;2022-08-21T04:52:16;12.40;99.90
16479;DHT22;8350;52.316;10.530;2022-08-21T04:54:44;12.40;99.90
16479;DHT22;8350;52.316;10.530;2022-08-21T04:57:12;12.40;99.90
16479;DHT22;8350;52.316;10.530;2022-08-21T04:59:45;12.40;99.90
16479;DHT22;8350;52.316;10.530;2022-08-21T05:02:14;12.40;99.90
16479;DHT22;8350;52.316;10.530;2022-08-21T05:04:43;12.50;99.90
16479;DHT22;8350;52.316;10.530;2022-08-21T05:07:16;12.60;99.90
16479;DHT22;8350;52.316;10.530;2022-08-21T05:09:43;12.80;99.90
16479;DHT22;8350;52.316;10.530;2022-08-21T05:12:10;13.10;99.90
16479;DHT22;8350;52.316;10.530;2022-08-21T05:14:38;13.50;99.90
16479;DHT22;8350;52.316;10.530;2022-08-21T05:17:04;14.10;99.90
16479;DHT22;8350;52.316;10.530;2022-08-21T05:19:31;14.70;99.90
16479;DHT22;8350;52.316;10.530;2022-08-21T05:21:58;15.30;99.90
16479;DHT22;8350;52.316;10.530;2022-08-21T05:24:27;15.80;99.90
16479;DHT22;8350;52.316;10.530;2022-08-21T05:26:54;16.40;99.90
16479;DHT22;8350;52.316;10.530;2022-08-21T05:29:24;17.00;99.90
16479;DHT22;8350;52.316;10.530;2022-08-21T05:31:51;17.70;99.90
16479;DHT22;8350;52.316;10.530;2022-08-21T05:34:20;18.20;20.00
16479;DHT22;8350;52.316;10.530;2022-08-21T05:36:46;18.40;16.70
16479;DHT22;8350;52.316;10.530;2022-08-21T05:39:13;18.40;18.80
16479;DHT22;8350;52.316;10.530;2022-08-21T05:41:41;18.20;28.60
16479;DHT22;8350;52.316;10.530;2022-08-21T05:44:08;17.60;90.90
16479;DHT22;8350;52.316;10.530;2022-08-21T05:46:35;17.10;99.90
16479;DHT22;8350;52.316;10.530;2022-08-21T05:49:02;16.80;99.90
16479;DHT22;8350;52.316;10.530;2022-08-21T05:51:28;16.80;99.90
16479;DHT22;8350;52.316;10.530;2022-08-21T05:53:55;17.20;99.90
16479;DHT22;8350;52.316;10.530;2022-08-21T05:56:22;17.90;99.90
16479;DHT22;8350;52.316;10.530;2022-08-21T05:58:50;18.30;99.90
16479;DHT22;8350;52.316;10.530;2022-08-21T06:01:16;19.00;92.80
16479;DHT22;8350;52.316;10.530;2022-08-21T06:03:43;19.70;31.50
16479;DHT22;8350;52.316;10.530;2022-08-21T06:06:11;20.20;1.00
16479;DHT22;8350;52.316;10.530;2022-08-21T06:08:38;20.60;1.00
16479;DHT22;8350;52.316;10.530;2022-08-21T06:11:06;20.80;1.00
16479;DHT22;8350;52.316;10.530;2022-08-21T06:13:33;20.90;1.00
16479;DHT22;8350;52.316;10.530;2022-08-21T06:16:04;21.40;1.00
16479;DHT22;8350;52.316;10.530;2022-08-21T06:18:31;21.70;1.00
16479;DHT22;8350;52.316;10.530;2022-08-21T06:20:58;21.80;1.00
16479;DHT22;8350;52.316;10.530;2022-08-21T06:23:25;21.00;1.00
16479;DHT22;8350;52.316;10.530;2022-08-21T06:25:52;20.50;1.00
16479;DHT22;8350;52.316;10.530;2022-08-21T06:28:19;19.90;16.80
16479;DHT22;8350;52.316;10.530;2022-08-21T06:30:45;19.50;66.60
16479;DHT22;8350;52.316;10.530;2022-08-21T06:33:14;19.30;83.20
16479;DHT22;8350;52.316;10.530;2022-08-21T06:35:41;19.00;85.70
16479;DHT22;8350;52.316;10.530;2022-08-21T06:38:07;18.80;99.90
16479;DHT22;8350;52.316;10.530;2022-08-21T06:40:34;18.70;99.90
16479;DHT22;8350;52.316;10.530;2022-08-21T06:43:07;18.60;99.90
16479;DHT22;8350;52.316;10.530;2022-08-21T06:45:34;18.60;99.90
16479;DHT22;8350;52.316;10.530;2022-08-21T06:48:01;18.50;99.90
16479;DHT22;8350;52.316;10.530;2022-08-21T06:50:29;18.60;99.90
16479;DHT22;8350;52.316;10.530;2022-08-21T06:53:01;18.70;99.90
16479;DHT22;8350;52.316;10.530;2022-08-21T06:55:29;18.70;99.90
16479;DHT22;8350;52.316;10.530;2022-08-21T06:57:56;18.80;99.90
16479;DHT22;8350;52.316;10.530;2022-08-21T07:00:23;18.90;99.90
16479;DHT22;8350;52.316;10.530;2022-08-21T07:02:49;18.90;99.90
16479;DHT22;8350;52.316;10.530;2022-08-21T07:05:16;19.00;99.90
16479;DHT22;8350;52.316;10.530;2022-08-21T07:07:45;19.10;99.90
16479;DHT22;8350;52.316;10.530;2022-08-21T07:10:12;19.20;99.90
16479;DHT22;8350;52.316;10.530;2022-08-21T07:12:39;19.20;99.90
16479;DHT22;8350;52.316;10.530;2022-08-21T07:15:07;19.30;99.90
16479;DHT22;8350;52.316;10.530;2022-08-21T07:17:36;19.50;99.90
16479;DHT22;8350;52.316;10.530;2022-08-21T07:20:03;19.70;99.90
16479;DHT22;8350;52.316;10.530;2022-08-21T07:22:31;19.90;99.90
16479;DHT22;8350;52.316;10.530;2022-08-21T07:24:59;20.00;82.00
16479;DHT22;8350;52.316;10.530;2022-08-21T07:27:26;20.00;70.80
16479;DHT22;8350;52.316;10.530;2022-08-21T07:29:53;20.10;64.40
16479;DHT22;8350;52.316;10.530;2022-08-21T07:32:19;20.20;52.70
16479;DHT22;8350;52.316;10.530;2022-08-21T07:34:46;20.30;29.30
16479;DHT22;8350;52.316;10.530;2022-08-21T07:37:13;20.30;49.60
16479;DHT22;8350;52.316;10.530;2022-08-21T07:39:40;20.30;42.60
16479;DHT22;8350;52.316;10.530;2022-08-21T07:42:08;20.40;27.80
16479;DHT22;8350;52.316;10.530;2022-08-21T07:44:35;20.50;1.00
16479;DHT22;8350;52.316;10.530;2022-08-21T07:47:02;20.60;1.00
16479;DHT22;8350;52.316;10.530;2022-08-21T07:49:31;20.80;1.00
16479;DHT22;8350;52.316;10.530;2022-08-21T07:51:58;21.10;1.00
16479;DHT22;8350;52.316;10.530;2022-08-21T07:54:25;21.40;1.00
16479;DHT22;8350;52.316;10.530;2022-08-21T07:56:52;21.80;1.00
16479;DHT22;8350;52.316;10.530;2022-08-21T07:59:20;22.20;1.00
16479;DHT22;8350;52.316;10.530;2022-08-21T08:01:47;22.40;1.00
16479;DHT22;8350;52.316;10.530;2022-08-21T08:04:13;22.60;1.00
16479;DHT22;8350;52.316;10.530;2022-08-21T08:06:41;22.60;1.00
16479;DHT22;8350;52.316;10.530;2022-08-21T08:09:08;22.60;1.00
16479;DHT22;8350;52.316;10.530;2022-08-21T08:11:42;22.60;1.00
16479;DHT22;8350;52.316;10.530;2022-08-21T08:14:09;22.50;1.00
16479;DHT22;8350;52.316;10.530;2022-08-21T08:16:38;22.50;1.00
16479;DHT22;8350;52.316;10.530;2022-08-21T08:19:04;22.60;1.00
16479;DHT22;8350;52.316;10.530;2022-08-21T08:21:31;22.70;1.00
16479;DHT22;8350;52.316;10.530;2022-08-21T08:23:59;22.60;1.00
16479;DHT22;8350;52.316;10.530;2022-08-21T08:26:26;22.70;1.00
16479;DHT22;8350;52.316;10.530;2022-08-21T08:28:52;22.60;1.00
16479;DHT22;8350;52.316;10.530;2022-08-21T08:31:19;22.70;1.00
16479;DHT22;8350;52.316;10.530;2022-08-21T08:33:48;22.70;1.00
16479;DHT22;8350;52.316;10.530;2022-08-21T08:36:16;22.90;1.00
16479;DHT22;8350;52.316;10.530;2022-08-21T08:38:44;23.20;1.00
16479;DHT22;8350;52.316;10.530;2022-08-21T08:41:13;23.70;1.00
16479;DHT22;8350;52.316;10.530;2022-08-21T08:43:42;24.30;1.00
16479;DHT22;8350;52.316;10.530;2022-08-21T08:46:13;24.40;1.00
16479;DHT22;8350;52.316;10.530;2022-08-21T08:48:46;24.10;1.00
16479;DHT22;8350;52.316;10.530;2022-08-21T08:51:21;23.90;1.00
16479;DHT22;8350;52.316;10.530;2022-08-21T08:53:52;24.30;1.00
16479;DHT22;8350;52.316;10.530;2022-08-21T08:56:26;24.60;1.00
16479;DHT22;8350;52.316;10.530;2022-08-21T08:58:57;25.00;1.00
16479;DHT22;8350;52.316;10.530;2022-08-21T09:01:25;25.20;1.00
16479;DHT22;8350;52.316;10.530;2022-08-21T09:03:51;25.30;1.00
16479;DHT22;8350;52.316;10.530;2022-08-21T09:06:28;25.40;1.00
16479;DHT22;8350;52.316;10.530;2022-08-21T09:09:06;25.30;1.00
16479;DHT22;8350;52.316;10.530;2022-08-21T09:11:42;25.40;1.00
16479;DHT22;8350;52.316;10.530;2022-08-21T09:14:21;25.60;1.00
16479;DHT22;8350;52.316;10.530;2022-08-21T09:16:56;25.70;1.00
16479;DHT22;8350;52.316;10.530;2022-08-21T09:19:36;25.40;1.00
16479;DHT22;8350;52.316;10.530;2022-08-21T09:22:16;25.30;1.00
16479;DHT22;8350;52.316;10.530;2022-08-21T09:24:50;25.10;1.00
16479;DHT22;8350;52.316;10.530;2022-08-21T09:27:19;25.40;1.00
16479;DHT22;8350;52.316;10.530;2022-08-21T09:29:52;25.50;1.00
16479;DHT22;8350;52.316;10.530;2022-08-21T09:32:21;25.50;1.00
16479;DHT22;8350;52.316;10.530;2022-08-21T09:34:56;26.00;1.00
16479;DHT22;8350;52.316;10.530;2022-08-21T09:37:26;26.10;99.90
16479;DHT22;8350;52.316;10.530;2022-08-21T09:39:53;26.40;1.00
16479;DHT22;8350;52.316;10.530;2022-08-21T09:42:24;26.30;99.90
16479;DHT22;8350;52.316;10.530;2022-08-21T09:45:12;25.70;96.80
16479;DHT22;8350;52.316;10.530;2022-08-21T09:47:39;25.30;99.90
16479;DHT22;8350;52.316;10.530;2022-08-21T09:50:11;25.10;99.90
16479;DHT22;8350;52.316;10.530;2022-08-21T09:52:46;25.40;99.90
16479;DHT22;8350;52.316;10.530;2022-08-21T09:55:18;25.30;99.90
16479;DHT22;8350;52.316;10.530;2022-08-21T09:57:59;25.10;99.90
16479;DHT22;8350;52.316;10.530;2022-08-21T10:00:31;25.20;99.90
16479;DHT22;8350;52.316;10.530;2022-08-21T10:03:09;25.00;99.90
16479;DHT22;8350;52.316;10.530;2022-08-21T10:05:38;25.10;99.90
16479;DHT22;8350;52.316;10.530;2022-08-21T10:08:16;25.20;99.90
16479;DHT22;8350;52.316;10.530;2022-08-21T10:10:43;25.20;1.00
16479;DHT22;8350;52.316;10.530;2022-08-21T10:13:21;25.50;6.30
16479;DHT22;8350;52.316;10.530;2022-08-21T10:16:00;25.80;1.00
16479;DHT22;8350;52.316;10.530;2022-08-21T10:18:36;26.00;1.00
16479;DHT22;8350;52.316;10.530;2022-08-21T10:21:10;26.10;1.00
16479;DHT22;8350;52.316;10.530;2022-08-21T10:23:54;26.20;1.00
16479;DHT22;8350;52.316;10.530;2022-08-21T10:26:34;26.50;1.00
16479;DHT22;8350;52.316;10.530;2022-08-21T10:29:09;26.20;13.80
16479;DHT22;8350;52.316;10.530;2022-08-21T10:31:46;25.70;99.90
16479;DHT22;8350;52.316;10.530;2022-08-21T10:34:25;26.10;99.90
16479;DHT22;8350;52.316;10.530;2022-08-21T10:37:05;26.30;99.90
16479;DHT22;8350;52.316;10.530;2022-08-21T10:39:36;26.20;1.00
16479;DHT22;8350;52.316;10.530;2022-08-21T10:42:28;26.20;1.00
16479;DHT22;8350;52.316;10.530;2022-08-21T10:45:07;26.10;1.00
16479;DHT22;8350;52.316;10.530;2022-08-21T10:47:41;26.10;99.90
16479;DHT22;8350;52.316;10.530;2022-08-21T10:50:17;25.90;1.00
16479;DHT22;8350;52.316;10.530;2022-08-21T10:52:56;25.80;1.00
16479;DHT22;8350;52.316;10.530;2022-08-21T10:55:33;25.90;1.00
16479;DHT22;8350;52.316;10.530;2022-08-21T10:58:04;25.60;99.90
16479;DHT22;8350;52.316;10.530;2022-08-21T11:00:40;25.30;99.90
16479;DHT22;8350;52.316;10.530;2022-08-21T11:03:12;25.40;1.00
16479;DHT22;8350;52.316;10.530;2022-08-21T11:05:42;25.60;99.90
16479;DHT22;8350;52.316;10.530;2022-08-21T11:08:12;25.70;99.90
16479;DHT22;8350;52.316;10.530;2022-08-21T11:10:46;25.70;1.00
16479;DHT22;8350;52.316;10.530;2022-08-21T11:13:17;26.10;99.90
16479;DHT22;8350;52.316;10.530;2022-08-21T11:16:01;26.60;1.00
16479;DHT22;8350;52.316;10.530;2022-08-21T11:18:32;26.70;99.90
16479;DHT22;8350;52.316;10.530;2022-08-21T11:21:06;26.90;99.90
16479;DHT22;8350;52.316;10.530;2022-08-21T11:23:42;26.70;39.00
16479;DHT22;8350;52.316;10.530;2022-08-21T11:26:15;26.10;1.00
16479;DHT22;8350;52.316;10.530;2022-08-21T11:28:50;26.10;92.60
16479;DHT22;8350;52.316;10.530;2022-08-21T11:31:27;26.20;99.90
16479;DHT22;8350;52.316;10.530;2022-08-21T11:34:06;26.50;99.90
16479;DHT22;8350;52.316;10.530;2022-08-21T11:36:38;26.80;99.90
16479;DHT22;8350;52.316;10.530;2022-08-21T11:39:14;27.40;99.90
16479;DHT22;8350;52.316;10.530;2022-08-21T11:41:49;27.80;99.90
16479;DHT22;8350;52.316;10.530;2022-08-21T11:44:29;28.00;1.00
16479;DHT22;8350;52.316;10.530;2022-08-21T11:47:09;28.20;99.90
16479;DHT22;8350;52.316;10.530;2022-08-21T11:49:55;28.10;1.00
16479;DHT22;8350;52.316;10.530;2022-08-21T11:52:29;28.30;4.00
16479;DHT22;8350;52.316;10.530;2022-08-21T11:55:02;28.50;99.90
16479;DHT22;8350;52.316;10.530;2022-08-21T11:57:34;28.60;99.80
16479;DHT22;8350;52.316;10.530;2022-08-21T12:00:05;28.60;1.00
16479;DHT22;8350;52.316;10.530;2022-08-21T12:02:35;28.70;99.90
16479;DHT22;8350;52.316;10.530;2022-08-21T12:05:05;28.60;1.00
16479;DHT22;8350;52.316;10.530;2022-08-21T12:07:35;28.20;1.00
16479;DHT22;8350;52.316;10.530;2022-08-21T12:10:06;28.30;1.00
16479;DHT22;8350;52.316;10.530;2022-08-21T12:12:38;28.60;1.00
16479;DHT22;8350;52.316;10.530;2022-08-21T12:15:23;28.80;1.00
16479;DHT22;8350;52.316;10.530;2022-08-21T12:17:55;28.70;1.00
16479;DHT22;8350;52.316;10.530;2022-08-21T12:20:37;28.50;73.20
16479;DHT22;8350;52.316;10.530;2022-08-21T12:23:15;27.80;92.00
16479;DHT22;8350;52.316;10.530;2022-08-21T12:25:46;27.80;84.00
16479;DHT22;8350;52.316;10.530;2022-08-21T12:28:21;28.20;98.90
16479;DHT22;8350;52.316;10.530;2022-08-21T12:30:49;28.50;99.90
16479;DHT22;8350;52.316;10.530;2022-08-21T12:33:22;29.00;99.90
16479;DHT22;8350;52.316;10.530;2022-08-21T12:35:51;29.10;99.90
16479;DHT22;8350;52.316;10.530;2022-08-21T12:38:21;28.80;99.90
16479;DHT22;8350;52.316;10.530;2022-08-21T12:40:53;28.80;99.90
16479;DHT22;8350;52.316;10.530;2022-08-21T12:43:27;28.90;99.90
16479;DHT22;8350;52.316;10.530;2022-08-21T12:45:55;28.90;99.90
16479;DHT22;8350;52.316;10.530;2022-08-21T12:48:38;29.00;99.90
16479;DHT22;8350;52.316;10.530;2022-08-21T12:51:11;28.90;99.90
16479;DHT22;8350;52.316;10.530;2022-08-21T12:53:43;28.90;99.90
16479;DHT22;8350;52.316;10.530;2022-08-21T12:56:12;28.30;99.90
16479;DHT22;8350;52.316;10.530;2022-08-21T12:58:45;28.20;99.90
16479;DHT22;8350;52.316;10.530;2022-08-21T13:01:17;27.90;99.90
16479;DHT22;8350;52.316;10.530;2022-08-21T13:03:45;27.80;99.90
16479;DHT22;8350;52.316;10.530;2022-08-21T13:06:14;27.80;99.90
16479;DHT22;8350;52.316;10.530;2022-08-21T13:08:43;28.20;99.90
16479;DHT22;8350;52.316;10.530;2022-08-21T13:11:14;28.40;99.90
16479;DHT22;8350;52.316;10.530;2022-08-21T13:13:48;28.70;99.90
16479;DHT22;8350;52.316;10.530;2022-08-21T13:16:19;28.70;99.90
16479;DHT22;8350;52.316;10.530;2022-08-21T13:18:54;28.40;99.90
16479;DHT22;8350;52.316;10.530;2022-08-21T13:21:21;28.20;99.90
16479;DHT22;8350;52.316;10.530;2022-08-21T13:23:53;28.20;99.90
16479;DHT22;8350;52.316;10.530;2022-08-21T13:26:22;28.30;99.90
16479;DHT22;8350;52.316;10.530;2022-08-21T13:28:50;28.30;99.90
16479;DHT22;8350;52.316;10.530;2022-08-21T13:31:19;28.40;99.90
16479;DHT22;8350;52.316;10.530;2022-08-21T13:33:48;28.50;99.90
16479;DHT22;8350;52.316;10.530;2022-08-21T13:36:20;28.70;99.90
16479;DHT22;8350;52.316;10.530;2022-08-21T13:38:47;28.30;99.90
16479;DHT22;8350;52.316;10.530;2022-08-21T13:41:21;28.20;99.90
16479;DHT22;8350;52.316;10.530;2022-08-21T13:43:57;28.00;99.90
16479;DHT22;8350;52.316;10.530;2022-08-21T13:46:27;27.50;99.90
16479;DHT22;8350;52.316;10.530;2022-08-21T13:48:55;27.60;99.90
16479;DHT22;8350;52.316;10.530;2022-08-21T13:51:23;27.60;99.90
16479;DHT22;8350;52.316;10.530;2022-08-21T13:53:51;27.50;99.90
16479;DHT22;8350;52.316;10.530;2022-08-21T13:56:23;27.30;99.90
16479;DHT22;8350;52.316;10.530;2022-08-21T13:58:53;27.40;99.90
16479;DHT22;8350;52.316;10.530;2022-08-21T14:01:23;27.50;99.90
16479;DHT22;8350;52.316;10.530;2022-08-21T14:03:52;27.70;99.90
16479;DHT22;8350;52.316;10.530;2022-08-21T14:06:21;28.10;99.90
16479;DHT22;8350;52.316;10.530;2022-08-21T14:08:51;28.40;99.90
16479;DHT22;8350;52.316;10.530;2022-08-21T14:11:20;28.40;99.90
16479;DHT22;8350;52.316;10.530;2022-08-21T14:13:51;28.20;99.90
16479;DHT22;8350;52.316;10.530;2022-08-21T14:16:25;27.70;99.90
16479;DHT22;8350;52.316;10.530;2022-08-21T14:18:54;27.80;99.90
16479;DHT22;8350;52.316;10.530;2022-08-21T14:21:35;28.00;99.90
16479;DHT22;8350;52.316;10.530;2022-08-21T14:24:04;28.00;99.90
16479;DHT22;8350;52.316;10.530;2022-08-21T14:26:33;27.90;99.90
16479;DHT22;8350;52.316;10.530;2022-08-21T14:29:01;27.40;99.90
16479;DHT22;8350;52.316;10.530;2022-08-21T14:31:32;27.00;99.90
16479;DHT22;8350;52.316;10.530;2022-08-21T14:34:00;27.10;99.90
16479;DHT22;8350;52.316;10.530;2022-08-21T14:36:27;27.10;99.90
16479;DHT22;8350;52.316;10.530;2022-08-21T14:38:54;27.20;99.90
16479;DHT22;8350;52.316;10.530;2022-08-21T14:41:23;27.30;99.90
16479;DHT22;8350;52.316;10.530;2022-08-21T14:43:51;27.50;99.90
16479;DHT22;8350;52.316;10.530;2022-08-21T14:46:22;27.70;99.90
16479;DHT22;8350;52.316;10.530;2022-08-21T14:48:51;27.30;99.90
16479;DHT22;8350;52.316;10.530;2022-08-21T14:51:17;26.90;99.90
16479;DHT22;8350;52.316;10.530;2022-08-21T14:53:44;26.90;99.90
16479;DHT22;8350;52.316;10.530;2022-08-21T14:56:12;27.00;99.90
16479;DHT22;8350;52.316;10.530;2022-08-21T14:58:47;27.30;99.90
16479;DHT22;8350;52.316;10.530;2022-08-21T15:01:16;27.50;99.90
16479;DHT22;8350;52.316;10.530;2022-08-21T15:03:44;27.30;99.90
16479;DHT22;8350;52.316;10.530;2022-08-21T15:06:12;27.20;99.90
16479;DHT22;8350;52.316;10.530;2022-08-21T15:08:39;26.90;99.90
16479;DHT22;8350;52.316;10.530;2022-08-21T15:11:07;26.80;99.90
16479;DHT22;8350;52.316;10.530;2022-08-21T15:13:36;26.80;99.90
16479;DHT22;8350;52.316;10.530;2022-08-21T15:16:03;26.80;99.90
16479;DHT22;8350;52.316;10.530;2022-08-21T15:18:30;26.70;99.90
16479;DHT22;8350;52.316;10.530;2022-08-21T15:20:57;26.70;99.90
16479;DHT22;8350;52.316;10.530;2022-08-21T15:23:25;26.80;99.90
16479;DHT22;8350;52.316;10.530;2022-08-21T15:25:53;26.90;99.90
16479;DHT22;8350;52.316;10.530;2022-08-21T15:28:20;26.90;99.90
16479;DHT22;8350;52.316;10.530;2022-08-21T15:30:50;26.80;99.90
16479;DHT22;8350;52.316;10.530;2022-08-21T15:33:17;26.90;99.90
16479;DHT22;8350;52.316;10.530;2022-08-21T15:35:44;26.90;99.90
16479;DHT22;8350;52.316;10.530;2022-08-21T15:38:12;27.00;99.90
16479;DHT22;8350;52.316;10.530;2022-08-21T15:40:41;27.00;99.90
16479;DHT22;8350;52.316;10.530;2022-08-21T15:43:20;27.00;99.90
16479;DHT22;8350;52.316;10.530;2022-08-21T15:45:47;27.10;99.90
16479;DHT22;8350;52.316;10.530;2022-08-21T15:48:14;26.80;99.90
16479;DHT22;8350;52.316;10.530;2022-08-21T15:50:41;26.80;99.90